KLFI/LFI METAR and TAF weather

Enter ICAO airport designator
Station Type Date Time Source
KLFI METAR 2018/12/17 15:56 UTC NOAA

KLFI 171556Z 25011KT 9SM FEW200 09/05 A2993 RMK AO2A SLP142 T00910053 $


Station Type Date Time Source
KLFI Decoded METAR 2018/12/17 15:56 UTC NOAA

Langley Air Force Base, VA, United States (KLFI) 37-05N 076-21W 6M
Dec 17, 2018 - 10:56 AM EST / 2018.12.17 1556 UTC
Wind: from the WSW (250 degrees) at 13 MPH (11 KT):0
Visibility: 9 mile(s):0
Sky conditions: mostly clear
Temperature: 48.4 F (9.1 C)
Dew Point: 41.5 F (5.3 C)
Relative Humidity: 77%
Pressure (altimeter): 29.93 in. Hg (1013 hPa)
ob: KLFI 171556Z 25011KT 9SM FEW200 09/05 A2993 RMK AO2A SLP142 T00910053
cycle: 16

Station Type Date Time Source
KLFI TAF 2018/12/17 10:15 UTC NOAA

TAF TAF COR KLFI 171010Z 1710/1816 28012KT 9999 SKC QNH2990INS
BECMG 1805/1806 36015G25KT 9999 SCT030 QNH3002INS TX10/1718Z TN02/1806Z


Example: see airport list